createdAt,value
2019-03-20T00:06:28.397Z,2.30
2019-03-20T00:26:38.826Z,2.00
2019-03-20T00:36:44.370Z,2.00
2019-03-20T00:46:49.851Z,1.80
2019-03-20T00:56:55.354Z,1.80
2019-03-20T01:07:00.944Z,1.80
2019-03-20T01:17:06.416Z,1.90
2019-03-20T01:27:11.918Z,1.80
2019-03-20T01:37:17.498Z,1.60
2019-03-20T01:47:23.089Z,1.20
2019-03-20T01:57:28.634Z,0.80
2019-03-20T02:07:34.304Z,0.80
2019-03-20T02:17:41.011Z,0.80
2019-03-20T02:27:46.735Z,0.60
2019-03-20T02:37:52.342Z,0.50
2019-03-20T02:47:57.836Z,0.10
2019-03-20T02:58:03.339Z,-0.10
2019-03-20T03:08:08.875Z,-0.40
2019-03-20T03:18:14.530Z,-0.40
2019-03-20T03:28:20.075Z,-0.60
2019-03-20T03:38:25.658Z,-0.70
2019-03-20T03:48:32.298Z,-0.70
2019-03-20T03:58:38.123Z,-0.70
2019-03-20T04:08:43.714Z,-0.80
2019-03-20T04:18:49.301Z,-1.00
2019-03-20T04:29:00.562Z,-0.90
2019-03-20T04:39:07.603Z,-1.00
2019-03-20T04:49:13.097Z,-1.00
2019-03-20T04:59:18.646Z,-0.90
2019-03-20T05:09:24.250Z,-0.90
2019-03-20T05:19:29.834Z,-0.90
2019-03-20T05:29:38.831Z,-0.70
2019-03-20T05:39:44.466Z,-0.60
2019-03-20T05:49:50.435Z,-0.50
2019-03-20T05:59:56.015Z,-0.50
2019-03-20T06:10:01.779Z,-0.40
2019-03-20T06:20:10.460Z,-0.40
2019-03-20T06:30:17.169Z,0.20
2019-03-20T06:40:22.802Z,0.60
2019-03-20T06:50:28.318Z,1.00
2019-03-20T07:00:49.607Z,1.80
2019-03-20T07:11:04.698Z,2.40
2019-03-20T07:21:18.725Z,2.40
2019-03-20T07:31:24.500Z,3.40
2019-03-20T07:41:29.999Z,3.80
2019-03-20T07:51:37.596Z,3.70
2019-03-20T08:01:43.158Z,4.20
2019-03-20T08:11:48.782Z,4.50
2019-03-20T08:21:54.375Z,5.30
2019-03-20T08:31:59.877Z,5.30
2019-03-20T08:52:28.925Z,5.90
2019-03-20T09:02:34.431Z,6.40
2019-03-20T09:12:40.177Z,6.80
2019-03-20T09:22:46.076Z,7.70
2019-03-20T09:32:51.881Z,7.70
2019-03-20T09:42:58.780Z,7.70
2019-03-20T09:53:04.445Z,7.70
2019-03-20T10:03:10.954Z,7.40
2019-03-20T10:13:16.628Z,8.50
2019-03-20T10:23:22.343Z,8.50
2019-03-20T10:33:27.955Z,9.80
2019-03-20T10:43:55.762Z,9.00
2019-03-20T10:54:01.388Z,9.00
2019-03-20T11:04:08.364Z,8.90
2019-03-20T11:14:14.033Z,8.80
2019-03-20T11:24:19.733Z,8.80
2019-03-20T11:34:25.491Z,8.40
2019-03-20T11:44:31.133Z,8.40
2019-03-20T11:54:36.874Z,8.70
2019-03-20T12:04:42.512Z,8.90
2019-03-20T12:14:48.164Z,8.90
2019-03-20T12:24:53.714Z,10.50
2019-03-20T12:34:59.337Z,9.50
2019-03-20T12:45:06.797Z,9.40
2019-03-20T12:55:15.883Z,10.10
2019-03-20T13:05:21.762Z,11.20
2019-03-20T13:15:33.430Z,11.40
2019-03-20T13:25:38.431Z,11.40
2019-03-20T13:35:44.076Z,11.10
2019-03-20T13:45:49.699Z,12.10
2019-03-20T13:55:59.192Z,11.70
2019-03-20T14:06:05.051Z,11.30
2019-03-20T14:16:10.707Z,10.40
2019-03-20T14:26:16.354Z,9.90
2019-03-20T14:36:22.042Z,9.70
2019-03-20T14:46:27.933Z,11.60
2019-03-20T14:56:33.563Z,12.20
2019-03-20T15:06:39.208Z,12.30
2019-03-20T15:16:44.860Z,12.60
2019-03-20T15:26:50.401Z,11.30
2019-03-20T15:36:56.029Z,11.30
2019-03-20T15:47:01.922Z,10.90
2019-03-20T15:57:07.553Z,10.70
2019-03-20T16:07:13.212Z,10.40
2019-03-20T16:17:19.163Z,10.40
2019-03-20T16:27:25.112Z,10.10
2019-03-20T16:37:30.937Z,9.60
2019-03-20T16:47:37.010Z,8.80
2019-03-20T16:57:42.962Z,8.20
2019-03-20T17:07:49.087Z,7.60
2019-03-20T17:17:55.143Z,7.10
2019-03-20T17:28:01.084Z,6.80
2019-03-20T17:38:07.144Z,6.40
2019-03-20T17:48:13.169Z,6.00
2019-03-20T17:58:20.522Z,5.90
2019-03-20T18:08:26.650Z,5.50
2019-03-20T18:18:32.955Z,5.20
2019-03-20T18:28:39.299Z,4.50
2019-03-20T18:38:45.374Z,4.50
2019-03-20T18:48:52.633Z,4.10
2019-03-20T18:58:58.816Z,4.00
2019-03-20T19:19:47.231Z,3.70
2019-03-20T19:29:53.399Z,3.70
2019-03-20T19:39:59.494Z,3.40
2019-03-20T19:50:08.651Z,3.30
2019-03-20T20:00:22.615Z,4.90
2019-03-20T20:10:28.920Z,3.00
2019-03-20T20:20:36.541Z,2.50
2019-03-20T20:30:42.559Z,2.50
2019-03-20T20:40:49.906Z,2.40
2019-03-20T20:50:55.942Z,2.30
2019-03-20T21:01:01.956Z,2.30
2019-03-20T21:11:07.882Z,2.40
2019-03-20T21:21:13.868Z,2.40
2019-03-20T21:31:25.344Z,2.40
2019-03-20T21:41:33.996Z,2.30
2019-03-20T21:51:39.832Z,2.30
2019-03-20T22:02:02.922Z,2.10
2019-03-20T22:12:36.660Z,2.10
2019-03-20T22:23:09.547Z,2.00
2019-03-20T22:33:51.397Z,2.10
2019-03-20T22:43:59.922Z,2.00
2019-03-20T22:54:40.214Z,1.90
2019-03-20T23:04:54.925Z,1.70
2019-03-20T23:15:00.584Z,1.70
2019-03-20T23:25:10.693Z,1.70
2019-03-20T23:35:16.767Z,1.70
2019-03-20T23:45:22.487Z,1.60
2019-03-20T23:55:28.236Z,1.60
